This is the latest recevied weather packets stored in our database for station/object N4OGP-WX. If no packets are shown the sender has not sent any weather packets the latest 10 day(s).
| Time | Temp. | Humidity | Pressure | Rain* | Wind** | Luminosity | Snow |
|---|---|---|---|---|---|---|---|
| 1778219488 | 23.89° C | 42% | 1020.4 hPa | 0 mm | - | - | - |
| 1778219428 | 20° C | 88% | 1011.5 hPa | 0 mm | - | - | - |
| 1778219368 | 20° C | 88% | 1011.5 hPa | 0 mm | - | - | - |
| 1778219308 | 23.89° C | 42% | 1020.4 hPa | 0 mm | - | - | - |
| 1778219248 | 23.89° C | 42% | 1020.4 hPa | 0 mm | - | - | - |
| 1778219188 | 23.89° C | 42% | 1020.4 hPa | 0 mm | - | - | - |
| 1778219098 | 20° C | 87% | 1011.8 hPa | 0 mm | - | - | - |
| 1778219038 | 23.89° C | 42% | 1020.4 hPa | 0 mm | - | - | - |
| 1778218948 | 20° C | 88% | 1012 hPa | 0 mm | - | - | - |
| 1778218888 | 20.56° C | 88% | 1012 hPa | 0 mm | - | - | - |
| 1778218828 | 23.89° C | 42% | 1020.4 hPa | 0 mm | - | - | - |
| 1778218738 | 23.89° C | 42% | 1020.4 hPa | 0 mm | - | - | - |
| 1778218678 | 23.89° C | 42% | 1020.4 hPa | 0 mm | - | - | - |
| 1778218588 | 20.56° C | 88% | 1012 hPa | 0 mm | - | - | - |
| 1778218498 | 20.56° C | 88% | 1012 hPa | 0 mm | - | - | - |
| 1778218438 | 20.56° C | 88% | 1012 hPa | 0 mm | - | - | - |
| 1778218378 | 20.56° C | 88% | 1012 hPa | 0 mm | - | - | - |
| 1778218288 | 23.89° C | 42% | 1020.4 hPa | 0 mm | - | - | - |
| 1778218228 | 23.89° C | 42% | 1020.4 hPa | 0 mm | - | - | - |
| 1778218168 | 20.56° C | 88% | 1012 hPa | 0 mm | - | - | - |
| 1778218108 | 20.56° C | 88% | 1011.9 hPa | 0 mm | - | - | - |
| 1778218048 | 23.89° C | 42% | 1020.4 hPa | 0 mm | - | - | - |
| 1778217958 | 20.56° C | 88% | 1011.7 hPa | 0 mm | - | - | - |
| 1778217898 | 23.89° C | 42% | 1020.4 hPa | 0 mm | - | - | - |
| 1778217838 | 20.56° C | 88% | 1011.7 hPa | 0 mm | - | - | - |
* Rain latest hour (hover to see other rain measurements)
** Current wind speed in m/s (hover to see current wind gust speed)